KLIT/LIT METAR and TAF weather

Enter ICAO airport designator
Station Type Date Time Source
KLIT METAR 2020/01/24 08:53 UTC NOAA

KLIT 240853Z 23007KT 7SM FEW050 OVC100 03/03 A2991 RMK AO2 SLP131 T00330028 56011


Station Type Date Time Source
KLIT Decoded METAR 2020/01/24 08:53 UTC NOAA

LITTLE ROCK ADAMS FIELD, AR, United States (KLIT) 34-44N 92-14W 79M
Jan 24, 2020 - 03:53 AM EST / 2020.01.24 0853 UTC
Wind: from the SW (230 degrees) at 8 MPH (7 KT):0
Visibility: 7 mile(s):0
Sky conditions: overcast
Temperature: 37.9 F (3.3 C)
Dew Point: 37.0 F (2.8 C)
Relative Humidity: 96%
Pressure (altimeter): 29.91 in. Hg (1012 hPa)
Pressure tendency: 0.03 inches (1.1 hPa) lower than three hours ago
ob: KLIT 240853Z 23007KT 7SM FEW050 OVC100 03/03 A2991 RMK AO2 SLP131 T00330028 56011
cycle: 9

Station Type Date Time Source
KLIT TAF 2020/01/24 06:42 UTC NOAA

TAF KLIT 240540Z 2406/2506 VRB05KT P6SM SCT020 BKN050
FM240900 26008KT P6SM BKN020 OVC040
FM241200 28012G20KT P6SM BKN015 OVC025
FM242300 28007KT P6SM BKN050

Example: see airport list